sensor_id;sensor_type;location;lat;lon;timestamp;P1;durP1;ratioP1;P2;durP2;ratioP2
8704;SDS011;4389;41.932;25.904;2023-03-04T00:00:07;19.87;;;14.47;;
8704;SDS011;4389;41.932;25.904;2023-03-04T00:02:34;26.87;;;13.67;;
8704;SDS011;4389;41.932;25.904;2023-03-04T00:05:01;19.80;;;15.40;;
8704;SDS011;4389;41.932;25.904;2023-03-04T00:07:28;23.80;;;13.97;;
8704;SDS011;4389;41.932;25.904;2023-03-04T00:09:55;18.87;;;13.93;;
8704;SDS011;4389;41.932;25.904;2023-03-04T00:12:22;23.57;;;14.47;;
8704;SDS011;4389;41.932;25.904;2023-03-04T00:14:49;18.77;;;14.40;;
8704;SDS011;4389;41.932;25.904;2023-03-04T00:17:17;16.00;;;13.90;;
8704;SDS011;4389;41.932;25.904;2023-03-04T00:19:44;20.10;;;14.27;;
8704;SDS011;4389;41.932;25.904;2023-03-04T00:22:11;16.33;;;13.57;;
8704;SDS011;4389;41.932;25.904;2023-03-04T00:24:37;18.80;;;13.77;;
8704;SDS011;4389;41.932;25.904;2023-03-04T00:27:04;25.90;;;15.47;;
8704;SDS011;4389;41.932;25.904;2023-03-04T00:29:31;15.20;;;12.73;;
8704;SDS011;4389;41.932;25.904;2023-03-04T00:31:58;15.70;;;12.53;;
8704;SDS011;4389;41.932;25.904;2023-03-04T00:34:26;21.80;;;13.53;;
8704;SDS011;4389;41.932;25.904;2023-03-04T00:36:53;22.60;;;17.13;;
8704;SDS011;4389;41.932;25.904;2023-03-04T00:39:26;22.97;;;15.70;;
8704;SDS011;4389;41.932;25.904;2023-03-04T00:41:53;21.40;;;15.83;;
8704;SDS011;4389;41.932;25.904;2023-03-04T00:44:20;31.10;;;14.90;;
8704;SDS011;4389;41.932;25.904;2023-03-04T00:46:46;23.33;;;14.47;;
8704;SDS011;4389;41.932;25.904;2023-03-04T00:49:13;17.90;;;13.97;;
8704;SDS011;4389;41.932;25.904;2023-03-04T00:51:41;17.87;;;14.87;;
8704;SDS011;4389;41.932;25.904;2023-03-04T00:54:08;19.73;;;15.17;;
8704;SDS011;4389;41.932;25.904;2023-03-04T00:56:35;21.60;;;15.47;;
8704;SDS011;4389;41.932;25.904;2023-03-04T00:59:02;20.90;;;15.60;;
8704;SDS011;4389;41.932;25.904;2023-03-04T01:01:29;21.63;;;15.47;;
8704;SDS011;4389;41.932;25.904;2023-03-04T01:03:56;19.60;;;15.37;;
8704;SDS011;4389;41.932;25.904;2023-03-04T01:06:22;17.60;;;14.47;;
8704;SDS011;4389;41.932;25.904;2023-03-04T01:08:51;18.60;;;14.73;;
8704;SDS011;4389;41.932;25.904;2023-03-04T01:11:17;29.67;;;14.87;;
8704;SDS011;4389;41.932;25.904;2023-03-04T01:13:44;18.30;;;14.53;;
8704;SDS011;4389;41.932;25.904;2023-03-04T01:16:11;24.70;;;17.20;;
8704;SDS011;4389;41.932;25.904;2023-03-04T01:18:38;20.20;;;14.87;;
8704;SDS011;4389;41.932;25.904;2023-03-04T01:21:05;19.00;;;14.60;;
8704;SDS011;4389;41.932;25.904;2023-03-04T01:23:32;20.73;;;15.80;;
8704;SDS011;4389;41.932;25.904;2023-03-04T01:26:00;21.07;;;15.33;;
8704;SDS011;4389;41.932;25.904;2023-03-04T01:28:27;29.47;;;19.40;;
8704;SDS011;4389;41.932;25.904;2023-03-04T01:30:54;64.17;;;19.33;;
8704;SDS011;4389;41.932;25.904;2023-03-04T01:33:21;34.17;;;18.47;;
8704;SDS011;4389;41.932;25.904;2023-03-04T01:35:48;33.83;;;16.37;;
8704;SDS011;4389;41.932;25.904;2023-03-04T01:38:14;23.43;;;14.63;;
8704;SDS011;4389;41.932;25.904;2023-03-04T01:40:41;18.30;;;13.47;;
8704;SDS011;4389;41.932;25.904;2023-03-04T01:43:11;25.90;;;16.87;;
8704;SDS011;4389;41.932;25.904;2023-03-04T01:45:44;21.57;;;15.80;;
8704;SDS011;4389;41.932;25.904;2023-03-04T01:48:12;27.30;;;17.70;;
8704;SDS011;4389;41.932;25.904;2023-03-04T01:50:42;31.00;;;17.70;;
8704;SDS011;4389;41.932;25.904;2023-03-04T01:53:09;31.83;;;18.20;;
8704;SDS011;4389;41.932;25.904;2023-03-04T01:55:43;29.73;;;20.53;;
8704;SDS011;4389;41.932;25.904;2023-03-04T01:58:11;31.73;;;22.37;;
8704;SDS011;4389;41.932;25.904;2023-03-04T02:00:39;36.00;;;22.40;;
8704;SDS011;4389;41.932;25.904;2023-03-04T02:03:06;32.53;;;23.33;;
8704;SDS011;4389;41.932;25.904;2023-03-04T02:05:36;34.73;;;20.50;;
8704;SDS011;4389;41.932;25.904;2023-03-04T02:08:05;25.27;;;18.30;;
8704;SDS011;4389;41.932;25.904;2023-03-04T02:10:33;25.70;;;18.10;;
8704;SDS011;4389;41.932;25.904;2023-03-04T02:13:00;26.90;;;18.47;;
8704;SDS011;4389;41.932;25.904;2023-03-04T02:15:29;25.17;;;18.47;;
8704;SDS011;4389;41.932;25.904;2023-03-04T02:17:56;21.77;;;17.97;;
8704;SDS011;4389;41.932;25.904;2023-03-04T02:20:26;24.70;;;18.00;;
8704;SDS011;4389;41.932;25.904;2023-03-04T02:23:00;50.43;;;20.07;;
8704;SDS011;4389;41.932;25.904;2023-03-04T02:25:36;38.83;;;20.60;;
8704;SDS011;4389;41.932;25.904;2023-03-04T02:28:09;27.83;;;19.30;;
8704;SDS011;4389;41.932;25.904;2023-03-04T02:30:36;29.43;;;16.40;;
8704;SDS011;4389;41.932;25.904;2023-03-04T02:33:03;20.10;;;16.00;;
8704;SDS011;4389;41.932;25.904;2023-03-04T02:35:31;27.93;;;17.10;;
8704;SDS011;4389;41.932;25.904;2023-03-04T02:37:58;26.87;;;16.63;;
8704;SDS011;4389;41.932;25.904;2023-03-04T02:40:26;19.53;;;14.03;;
8704;SDS011;4389;41.932;25.904;2023-03-04T02:42:56;18.43;;;14.67;;
8704;SDS011;4389;41.932;25.904;2023-03-04T02:45:35;18.20;;;13.70;;
8704;SDS011;4389;41.932;25.904;2023-03-04T02:48:05;19.27;;;15.00;;
8704;SDS011;4389;41.932;25.904;2023-03-04T02:50:34;20.90;;;15.53;;
8704;SDS011;4389;41.932;25.904;2023-03-04T02:53:03;26.17;;;17.37;;
8704;SDS011;4389;41.932;25.904;2023-03-04T02:55:30;22.00;;;18.40;;
8704;SDS011;4389;41.932;25.904;2023-03-04T02:57:57;18.70;;;15.67;;
8704;SDS011;4389;41.932;25.904;2023-03-04T03:00:24;17.23;;;13.60;;
8704;SDS011;4389;41.932;25.904;2023-03-04T03:02:52;16.43;;;13.13;;
8704;SDS011;4389;41.932;25.904;2023-03-04T03:05:21;16.13;;;12.53;;
8704;SDS011;4389;41.932;25.904;2023-03-04T03:07:48;15.20;;;12.73;;
8704;SDS011;4389;41.932;25.904;2023-03-04T03:10:15;16.50;;;13.10;;
8704;SDS011;4389;41.932;25.904;2023-03-04T03:12:42;14.97;;;12.07;;
8704;SDS011;4389;41.932;25.904;2023-03-04T03:15:10;21.37;;;13.70;;
8704;SDS011;4389;41.932;25.904;2023-03-04T03:17:37;16.53;;;12.63;;
8704;SDS011;4389;41.932;25.904;2023-03-04T03:20:06;20.70;;;13.90;;
8704;SDS011;4389;41.932;25.904;2023-03-04T03:22:34;16.97;;;13.07;;
8704;SDS011;4389;41.932;25.904;2023-03-04T03:25:01;15.53;;;12.57;;
8704;SDS011;4389;41.932;25.904;2023-03-04T03:27:28;19.93;;;14.00;;
8704;SDS011;4389;41.932;25.904;2023-03-04T03:29:56;20.20;;;14.87;;
8704;SDS011;4389;41.932;25.904;2023-03-04T03:32:23;26.63;;;14.87;;
8704;SDS011;4389;41.932;25.904;2023-03-04T03:34:50;25.87;;;18.37;;
8704;SDS011;4389;41.932;25.904;2023-03-04T03:37:18;22.47;;;17.60;;
8704;SDS011;4389;41.932;25.904;2023-03-04T03:39:45;20.50;;;16.50;;
8704;SDS011;4389;41.932;25.904;2023-03-04T03:42:12;21.83;;;18.60;;
8704;SDS011;4389;41.932;25.904;2023-03-04T03:44:38;26.23;;;16.73;;
8704;SDS011;4389;41.932;25.904;2023-03-04T03:47:05;21.60;;;16.17;;
8704;SDS011;4389;41.932;25.904;2023-03-04T03:49:32;20.33;;;16.23;;
8704;SDS011;4389;41.932;25.904;2023-03-04T03:51:59;20.40;;;15.33;;
8704;SDS011;4389;41.932;25.904;2023-03-04T03:54:27;32.53;;;16.40;;
8704;SDS011;4389;41.932;25.904;2023-03-04T03:56:54;18.13;;;13.83;;
8704;SDS011;4389;41.932;25.904;2023-03-04T03:59:21;20.80;;;15.37;;
8704;SDS011;4389;41.932;25.904;2023-03-04T04:01:48;24.73;;;16.93;;
8704;SDS011;4389;41.932;25.904;2023-03-04T04:04:15;21.90;;;16.57;;
8704;SDS011;4389;41.932;25.904;2023-03-04T04:06:42;22.60;;;17.93;;
8704;SDS011;4389;41.932;25.904;2023-03-04T04:09:09;20.13;;;16.83;;
8704;SDS011;4389;41.932;25.904;2023-03-04T04:11:37;21.13;;;17.10;;
8704;SDS011;4389;41.932;25.904;2023-03-04T04:14:04;20.10;;;16.67;;
8704;SDS011;4389;41.932;25.904;2023-03-04T04:16:31;24.90;;;16.63;;
8704;SDS011;4389;41.932;25.904;2023-03-04T04:18:58;17.87;;;15.40;;
8704;SDS011;4389;41.932;25.904;2023-03-04T04:21:25;21.83;;;15.13;;
8704;SDS011;4389;41.932;25.904;2023-03-04T04:23:52;22.00;;;16.30;;
8704;SDS011;4389;41.932;25.904;2023-03-04T04:26:18;23.47;;;16.03;;
8704;SDS011;4389;41.932;25.904;2023-03-04T04:28:47;21.27;;;16.40;;
8704;SDS011;4389;41.932;25.904;2023-03-04T04:31:14;31.37;;;18.73;;
8704;SDS011;4389;41.932;25.904;2023-03-04T04:33:41;22.93;;;18.20;;
8704;SDS011;4389;41.932;25.904;2023-03-04T04:36:08;38.53;;;18.33;;
8704;SDS011;4389;41.932;25.904;2023-03-04T04:38:38;24.50;;;16.70;;
8704;SDS011;4389;41.932;25.904;2023-03-04T04:41:07;21.53;;;15.60;;
8704;SDS011;4389;41.932;25.904;2023-03-04T04:43:44;20.33;;;16.07;;
8704;SDS011;4389;41.932;25.904;2023-03-04T04:46:12;22.87;;;16.10;;
8704;SDS011;4389;41.932;25.904;2023-03-04T04:48:40;22.23;;;16.93;;
8704;SDS011;4389;41.932;25.904;2023-03-04T04:51:07;24.40;;;17.10;;
8704;SDS011;4389;41.932;25.904;2023-03-04T04:53:34;22.93;;;17.27;;
8704;SDS011;4389;41.932;25.904;2023-03-04T04:56:06;25.67;;;15.87;;
8704;SDS011;4389;41.932;25.904;2023-03-04T04:58:34;24.77;;;16.10;;
8704;SDS011;4389;41.932;25.904;2023-03-04T05:01:02;22.83;;;16.33;;
8704;SDS011;4389;41.932;25.904;2023-03-04T05:03:31;26.20;;;16.07;;
8704;SDS011;4389;41.932;25.904;2023-03-04T05:05:58;23.00;;;16.60;;
8704;SDS011;4389;41.932;25.904;2023-03-04T05:08:25;27.00;;;16.87;;
8704;SDS011;4389;41.932;25.904;2023-03-04T05:10:52;19.80;;;15.97;;
8704;SDS011;4389;41.932;25.904;2023-03-04T05:13:18;17.80;;;13.77;;
8704;SDS011;4389;41.932;25.904;2023-03-04T05:15:45;20.00;;;14.67;;
8704;SDS011;4389;41.932;25.904;2023-03-04T05:18:13;24.97;;;15.87;;
8704;SDS011;4389;41.932;25.904;2023-03-04T05:20:41;18.67;;;14.93;;
8704;SDS011;4389;41.932;25.904;2023-03-04T05:23:08;20.87;;;15.37;;
8704;SDS011;4389;41.932;25.904;2023-03-04T05:25:35;23.37;;;17.03;;
8704;SDS011;4389;41.932;25.904;2023-03-04T05:28:01;31.03;;;17.30;;
8704;SDS011;4389;41.932;25.904;2023-03-04T05:30:29;29.97;;;17.33;;
8704;SDS011;4389;41.932;25.904;2023-03-04T05:32:56;29.77;;;17.73;;
8704;SDS011;4389;41.932;25.904;2023-03-04T05:35:22;31.50;;;18.00;;
8704;SDS011;4389;41.932;25.904;2023-03-04T05:37:50;30.20;;;17.70;;
8704;SDS011;4389;41.932;25.904;2023-03-04T05:40:18;42.90;;;17.83;;
8704;SDS011;4389;41.932;25.904;2023-03-04T05:42:44;21.40;;;15.80;;
8704;SDS011;4389;41.932;25.904;2023-03-04T05:45:11;23.70;;;16.67;;
8704;SDS011;4389;41.932;25.904;2023-03-04T05:47:38;21.60;;;16.37;;
8704;SDS011;4389;41.932;25.904;2023-03-04T05:50:05;37.37;;;17.43;;
8704;SDS011;4389;41.932;25.904;2023-03-04T05:52:33;28.33;;;19.03;;
8704;SDS011;4389;41.932;25.904;2023-03-04T05:55:01;28.63;;;18.87;;
8704;SDS011;4389;41.932;25.904;2023-03-04T05:57:28;46.73;;;22.03;;
8704;SDS011;4389;41.932;25.904;2023-03-04T05:59:54;39.87;;;18.97;;
8704;SDS011;4389;41.932;25.904;2023-03-04T06:02:21;31.67;;;20.80;;
8704;SDS011;4389;41.932;25.904;2023-03-04T06:04:48;34.07;;;21.43;;
8704;SDS011;4389;41.932;25.904;2023-03-04T06:07:15;28.57;;;21.43;;
8704;SDS011;4389;41.932;25.904;2023-03-04T06:09:42;25.03;;;20.37;;
8704;SDS011;4389;41.932;25.904;2023-03-04T06:12:10;31.13;;;22.47;;
8704;SDS011;4389;41.932;25.904;2023-03-04T06:14:37;32.70;;;22.57;;
8704;SDS011;4389;41.932;25.904;2023-03-04T06:17:04;51.30;;;40.73;;
8704;SDS011;4389;41.932;25.904;2023-03-04T06:19:31;125.53;;;74.53;;
8704;SDS011;4389;41.932;25.904;2023-03-04T06:21:58;55.73;;;37.03;;
8704;SDS011;4389;41.932;25.904;2023-03-04T06:24:25;29.90;;;21.77;;
8704;SDS011;4389;41.932;25.904;2023-03-04T06:26:52;25.03;;;19.63;;
8704;SDS011;4389;41.932;25.904;2023-03-04T06:29:20;25.70;;;20.50;;
8704;SDS011;4389;41.932;25.904;2023-03-04T06:31:48;29.87;;;22.47;;
8704;SDS011;4389;41.932;25.904;2023-03-04T06:34:14;26.50;;;21.27;;
8704;SDS011;4389;41.932;25.904;2023-03-04T06:36:41;29.30;;;23.40;;
8704;SDS011;4389;41.932;25.904;2023-03-04T06:39:08;38.93;;;25.00;;
8704;SDS011;4389;41.932;25.904;2023-03-04T06:41:35;29.13;;;24.70;;
8704;SDS011;4389;41.932;25.904;2023-03-04T06:44:03;29.33;;;24.73;;
8704;SDS011;4389;41.932;25.904;2023-03-04T06:46:33;30.70;;;24.47;;
8704;SDS011;4389;41.932;25.904;2023-03-04T06:49:00;38.17;;;25.53;;
8704;SDS011;4389;41.932;25.904;2023-03-04T06:51:27;39.80;;;26.27;;
8704;SDS011;4389;41.932;25.904;2023-03-04T06:53:54;34.20;;;26.93;;
8704;SDS011;4389;41.932;25.904;2023-03-04T06:56:21;36.63;;;26.27;;
8704;SDS011;4389;41.932;25.904;2023-03-04T06:58:48;52.57;;;28.20;;
8704;SDS011;4389;41.932;25.904;2023-03-04T07:01:16;41.80;;;27.10;;
8704;SDS011;4389;41.932;25.904;2023-03-04T07:03:46;48.90;;;26.90;;
8704;SDS011;4389;41.932;25.904;2023-03-04T07:06:15;34.63;;;25.97;;
8704;SDS011;4389;41.932;25.904;2023-03-04T07:08:43;41.23;;;26.67;;
8704;SDS011;4389;41.932;25.904;2023-03-04T07:11:10;30.03;;;24.27;;
8704;SDS011;4389;41.932;25.904;2023-03-04T07:13:38;39.37;;;25.33;;
8704;SDS011;4389;41.932;25.904;2023-03-04T07:16:05;24.27;;;21.60;;
8704;SDS011;4389;41.932;25.904;2023-03-04T07:18:32;24.30;;;19.80;;
8704;SDS011;4389;41.932;25.904;2023-03-04T07:21:01;24.17;;;21.67;;
8704;SDS011;4389;41.932;25.904;2023-03-04T07:23:28;31.90;;;22.83;;
8704;SDS011;4389;41.932;25.904;2023-03-04T07:25:55;28.83;;;23.37;;
8704;SDS011;4389;41.932;25.904;2023-03-04T07:28:21;37.47;;;25.23;;
8704;SDS011;4389;41.932;25.904;2023-03-04T07:30:48;39.97;;;27.87;;
8704;SDS011;4389;41.932;25.904;2023-03-04T07:33:15;35.50;;;27.43;;
8704;SDS011;4389;41.932;25.904;2023-03-04T07:35:42;31.43;;;22.53;;
8704;SDS011;4389;41.932;25.904;2023-03-04T07:38:10;27.57;;;21.87;;
8704;SDS011;4389;41.932;25.904;2023-03-04T07:40:37;23.70;;;19.67;;
8704;SDS011;4389;41.932;25.904;2023-03-04T07:43:04;30.40;;;23.97;;
8704;SDS011;4389;41.932;25.904;2023-03-04T07:45:30;27.33;;;21.00;;
8704;SDS011;4389;41.932;25.904;2023-03-04T07:47:57;28.17;;;17.87;;
8704;SDS011;4389;41.932;25.904;2023-03-04T07:50:24;22.63;;;16.17;;
8704;SDS011;4389;41.932;25.904;2023-03-04T07:52:51;26.13;;;16.60;;
8704;SDS011;4389;41.932;25.904;2023-03-04T07:55:19;27.97;;;15.87;;
8704;SDS011;4389;41.932;25.904;2023-03-04T07:57:46;27.33;;;17.00;;
8704;SDS011;4389;41.932;25.904;2023-03-04T08:00:14;26.13;;;19.10;;
8704;SDS011;4389;41.932;25.904;2023-03-04T08:02:42;24.67;;;18.43;;
8704;SDS011;4389;41.932;25.904;2023-03-04T08:05:09;29.37;;;18.47;;
8704;SDS011;4389;41.932;25.904;2023-03-04T08:07:35;33.13;;;17.07;;
8704;SDS011;4389;41.932;25.904;2023-03-04T08:10:02;17.27;;;13.47;;
8704;SDS011;4389;41.932;25.904;2023-03-04T08:12:31;23.30;;;18.50;;
8704;SDS011;4389;41.932;25.904;2023-03-04T08:14:58;23.97;;;15.67;;
8704;SDS011;4389;41.932;25.904;2023-03-04T08:17:25;21.10;;;15.53;;
8704;SDS011;4389;41.932;25.904;2023-03-04T08:19:53;18.07;;;14.77;;
8704;SDS011;4389;41.932;25.904;2023-03-04T08:22:20;22.77;;;15.73;;
8704;SDS011;4389;41.932;25.904;2023-03-04T08:24:47;17.97;;;13.07;;
8704;SDS011;4389;41.932;25.904;2023-03-04T08:27:14;16.33;;;13.73;;
8704;SDS011;4389;41.932;25.904;2023-03-04T08:29:42;17.43;;;13.87;;
8704;SDS011;4389;41.932;25.904;2023-03-04T08:32:09;20.37;;;15.53;;
8704;SDS011;4389;41.932;25.904;2023-03-04T08:34:37;23.57;;;19.40;;
8704;SDS011;4389;41.932;25.904;2023-03-04T08:37:05;26.87;;;18.87;;
8704;SDS011;4389;41.932;25.904;2023-03-04T08:39:32;18.23;;;14.60;;
8704;SDS011;4389;41.932;25.904;2023-03-04T08:42:00;23.87;;;15.40;;
8704;SDS011;4389;41.932;25.904;2023-03-04T08:44:27;18.83;;;13.37;;
8704;SDS011;4389;41.932;25.904;2023-03-04T08:46:55;21.43;;;14.27;;
8704;SDS011;4389;41.932;25.904;2023-03-04T08:49:22;14.87;;;11.20;;
8704;SDS011;4389;41.932;25.904;2023-03-04T08:51:49;16.70;;;13.10;;
8704;SDS011;4389;41.932;25.904;2023-03-04T08:54:16;24.67;;;14.70;;
8704;SDS011;4389;41.932;25.904;2023-03-04T08:56:42;22.87;;;13.93;;
8704;SDS011;4389;41.932;25.904;2023-03-04T08:59:09;18.13;;;13.57;;
8704;SDS011;4389;41.932;25.904;2023-03-04T09:01:37;24.80;;;15.07;;
8704;SDS011;4389;41.932;25.904;2023-03-04T09:04:05;17.90;;;13.67;;
8704;SDS011;4389;41.932;25.904;2023-03-04T09:06:31;27.83;;;16.37;;
8704;SDS011;4389;41.932;25.904;2023-03-04T09:08:58;23.47;;;14.83;;
8704;SDS011;4389;41.932;25.904;2023-03-04T09:11:25;20.40;;;14.90;;
8704;SDS011;4389;41.932;25.904;2023-03-04T09:13:52;23.90;;;14.70;;
8704;SDS011;4389;41.932;25.904;2023-03-04T09:16:19;18.80;;;16.10;;
8704;SDS011;4389;41.932;25.904;2023-03-04T09:18:46;18.17;;;14.03;;
8704;SDS011;4389;41.932;25.904;2023-03-04T09:21:14;24.53;;;18.00;;
8704;SDS011;4389;41.932;25.904;2023-03-04T09:23:41;24.40;;;18.43;;
8704;SDS011;4389;41.932;25.904;2023-03-04T09:26:12;22.97;;;16.63;;
8704;SDS011;4389;41.932;25.904;2023-03-04T09:28:40;37.20;;;19.70;;
8704;SDS011;4389;41.932;25.904;2023-03-04T09:31:10;19.63;;;14.57;;
8704;SDS011;4389;41.932;25.904;2023-03-04T09:33:37;22.87;;;15.60;;
8704;SDS011;4389;41.932;25.904;2023-03-04T09:36:06;23.07;;;15.17;;
8704;SDS011;4389;41.932;25.904;2023-03-04T09:38:35;12.30;;;11.00;;
8704;SDS011;4389;41.932;25.904;2023-03-04T09:41:03;45.00;;;15.00;;
8704;SDS011;4389;41.932;25.904;2023-03-04T09:43:33;18.10;;;13.50;;
8704;SDS011;4389;41.932;25.904;2023-03-04T09:46:03;18.20;;;12.97;;
8704;SDS011;4389;41.932;25.904;2023-03-04T09:48:35;19.10;;;13.70;;
8704;SDS011;4389;41.932;25.904;2023-03-04T09:51:19;27.57;;;14.87;;
8704;SDS011;4389;41.932;25.904;2023-03-04T09:53:51;21.67;;;12.83;;
8704;SDS011;4389;41.932;25.904;2023-03-04T09:56:27;14.90;;;12.10;;
8704;SDS011;4389;41.932;25.904;2023-03-04T09:58:56;22.73;;;15.17;;
8704;SDS011;4389;41.932;25.904;2023-03-04T10:01:33;24.47;;;13.13;;
8704;SDS011;4389;41.932;25.904;2023-03-04T10:04:05;28.63;;;16.53;;
8704;SDS011;4389;41.932;25.904;2023-03-04T10:06:39;22.73;;;15.13;;
8704;SDS011;4389;41.932;25.904;2023-03-04T10:09:10;21.37;;;14.40;;
8704;SDS011;4389;41.932;25.904;2023-03-04T10:11:43;20.30;;;13.30;;
8704;SDS011;4389;41.932;25.904;2023-03-04T10:17:02;19.27;;;15.77;;
8704;SDS011;4389;41.932;25.904;2023-03-04T10:19:37;17.23;;;13.43;;
8704;SDS011;4389;41.932;25.904;2023-03-04T10:22:15;21.80;;;13.23;;
8704;SDS011;4389;41.932;25.904;2023-03-04T10:24:55;15.60;;;13.43;;
8704;SDS011;4389;41.932;25.904;2023-03-04T10:27:23;17.63;;;11.23;;
8704;SDS011;4389;41.932;25.904;2023-03-04T10:29:54;15.97;;;11.60;;
8704;SDS011;4389;41.932;25.904;2023-03-04T10:32:24;27.83;;;12.90;;
8704;SDS011;4389;41.932;25.904;2023-03-04T10:34:51;14.03;;;11.70;;
8704;SDS011;4389;41.932;25.904;2023-03-04T10:37:18;15.57;;;11.93;;
8704;SDS011;4389;41.932;25.904;2023-03-04T10:39:45;14.77;;;11.50;;
8704;SDS011;4389;41.932;25.904;2023-03-04T10:42:25;18.70;;;12.40;;
8704;SDS011;4389;41.932;25.904;2023-03-04T10:45:01;23.40;;;16.27;;
8704;SDS011;4389;41.932;25.904;2023-03-04T10:47:29;26.27;;;13.33;;
8704;SDS011;4389;41.932;25.904;2023-03-04T10:49:58;16.10;;;13.10;;
8704;SDS011;4389;41.932;25.904;2023-03-04T10:52:27;18.47;;;11.37;;
8704;SDS011;4389;41.932;25.904;2023-03-04T10:54:56;13.40;;;12.00;;
8704;SDS011;4389;41.932;25.904;2023-03-04T10:57:31;12.17;;;10.93;;
8704;SDS011;4389;41.932;25.904;2023-03-04T11:00:00;13.97;;;11.33;;
8704;SDS011;4389;41.932;25.904;2023-03-04T11:02:29;18.03;;;13.93;;
8704;SDS011;4389;41.932;25.904;2023-03-04T11:05:04;20.97;;;14.00;;
8704;SDS011;4389;41.932;25.904;2023-03-04T11:07:36;20.43;;;15.17;;
8704;SDS011;4389;41.932;25.904;2023-03-04T11:10:06;13.80;;;11.53;;
8704;SDS011;4389;41.932;25.904;2023-03-04T11:12:36;18.67;;;13.80;;
8704;SDS011;4389;41.932;25.904;2023-03-04T11:15:03;14.37;;;12.70;;
8704;SDS011;4389;41.932;25.904;2023-03-04T11:17:46;14.43;;;12.90;;
8704;SDS011;4389;41.932;25.904;2023-03-04T11:20:16;19.90;;;16.30;;
8704;SDS011;4389;41.932;25.904;2023-03-04T11:22:48;13.00;;;11.60;;
8704;SDS011;4389;41.932;25.904;2023-03-04T11:25:20;17.47;;;12.57;;
8704;SDS011;4389;41.932;25.904;2023-03-04T11:27:53;12.93;;;11.53;;
8704;SDS011;4389;41.932;25.904;2023-03-04T11:30:34;15.47;;;11.03;;
8704;SDS011;4389;41.932;25.904;2023-03-04T11:33:08;18.77;;;12.47;;
8704;SDS011;4389;41.932;25.904;2023-03-04T11:35:49;16.70;;;12.60;;
8704;SDS011;4389;41.932;25.904;2023-03-04T11:38:23;23.53;;;12.80;;
8704;SDS011;4389;41.932;25.904;2023-03-04T11:40:56;14.93;;;11.20;;
8704;SDS011;4389;41.932;25.904;2023-03-04T11:43:27;12.90;;;11.50;;
8704;SDS011;4389;41.932;25.904;2023-03-04T11:49:31;16.97;;;13.10;;
8704;SDS011;4389;41.932;25.904;2023-03-04T11:52:16;19.23;;;12.07;;
8704;SDS011;4389;41.932;25.904;2023-03-04T11:54:52;15.40;;;12.40;;
8704;SDS011;4389;41.932;25.904;2023-03-04T11:57:33;13.00;;;11.03;;
8704;SDS011;4389;41.932;25.904;2023-03-04T12:00:20;20.23;;;13.20;;
8704;SDS011;4389;41.932;25.904;2023-03-04T12:03:02;16.27;;;12.50;;
8704;SDS011;4389;41.932;25.904;2023-03-04T12:05:42;17.63;;;14.33;;
8704;SDS011;4389;41.932;25.904;2023-03-04T12:08:19;15.60;;;12.20;;
8704;SDS011;4389;41.932;25.904;2023-03-04T12:10:57;11.67;;;10.47;;
8704;SDS011;4389;41.932;25.904;2023-03-04T12:13:41;13.63;;;11.03;;
8704;SDS011;4389;41.932;25.904;2023-03-04T12:16:24;14.77;;;12.23;;
8704;SDS011;4389;41.932;25.904;2023-03-04T12:19:05;14.20;;;11.13;;
8704;SDS011;4389;41.932;25.904;2023-03-04T12:21:49;14.53;;;11.60;;
8704;SDS011;4389;41.932;25.904;2023-03-04T12:24:33;13.63;;;10.43;;
8704;SDS011;4389;41.932;25.904;2023-03-04T12:27:17;16.50;;;12.27;;
8704;SDS011;4389;41.932;25.904;2023-03-04T12:29:52;18.33;;;12.03;;
8704;SDS011;4389;41.932;25.904;2023-03-04T12:32:27;13.57;;;10.67;;
8704;SDS011;4389;41.932;25.904;2023-03-04T12:35:12;11.97;;;10.63;;
8704;SDS011;4389;41.932;25.904;2023-03-04T12:37:56;14.87;;;11.03;;
8704;SDS011;4389;41.932;25.904;2023-03-04T12:40:37;11.73;;;8.43;;
8704;SDS011;4389;41.932;25.904;2023-03-04T12:43:25;16.07;;;11.50;;
8704;SDS011;4389;41.932;25.904;2023-03-04T12:46:01;13.50;;;11.07;;
8704;SDS011;4389;41.932;25.904;2023-03-04T12:48:38;13.73;;;11.60;;
8704;SDS011;4389;41.932;25.904;2023-03-04T12:51:14;11.90;;;10.43;;
8704;SDS011;4389;41.932;25.904;2023-03-04T12:53:54;13.37;;;10.97;;
8704;SDS011;4389;41.932;25.904;2023-03-04T12:56:31;17.70;;;13.27;;
8704;SDS011;4389;41.932;25.904;2023-03-04T12:59:04;14.33;;;12.70;;
8704;SDS011;4389;41.932;25.904;2023-03-04T13:01:35;12.97;;;10.30;;
8704;SDS011;4389;41.932;25.904;2023-03-04T13:04:08;14.70;;;12.27;;
8704;SDS011;4389;41.932;25.904;2023-03-04T13:06:42;15.33;;;12.10;;
8704;SDS011;4389;41.932;25.904;2023-03-04T13:09:16;13.83;;;12.13;;
8704;SDS011;4389;41.932;25.904;2023-03-04T13:11:53;15.80;;;11.33;;
8704;SDS011;4389;41.932;25.904;2023-03-04T13:14:29;13.77;;;11.17;;
8704;SDS011;4389;41.932;25.904;2023-03-04T13:16:58;67.30;;;12.13;;
8704;SDS011;4389;41.932;25.904;2023-03-04T13:19:46;12.80;;;9.20;;
8704;SDS011;4389;41.932;25.904;2023-03-04T13:22:29;14.47;;;9.53;;
8704;SDS011;4389;41.932;25.904;2023-03-04T13:25:02;11.23;;;9.57;;
8704;SDS011;4389;41.932;25.904;2023-03-04T13:28:18;12.90;;;9.07;;
8704;SDS011;4389;41.932;25.904;2023-03-04T13:33:49;13.47;;;9.67;;
8704;SDS011;4389;41.932;25.904;2023-03-04T13:36:26;14.17;;;10.63;;
8704;SDS011;4389;41.932;25.904;2023-03-04T13:38:59;17.07;;;11.33;;
8704;SDS011;4389;41.932;25.904;2023-03-04T13:41:30;15.83;;;13.10;;
8704;SDS011;4389;41.932;25.904;2023-03-04T13:46:57;17.37;;;10.70;;
8704;SDS011;4389;41.932;25.904;2023-03-04T13:49:34;13.00;;;10.40;;
8704;SDS011;4389;41.932;25.904;2023-03-04T13:58:02;12.07;;;10.30;;
8704;SDS011;4389;41.932;25.904;2023-03-04T14:00:47;13.47;;;10.43;;
8704;SDS011;4389;41.932;25.904;2023-03-04T14:03:18;15.33;;;12.83;;
8704;SDS011;4389;41.932;25.904;2023-03-04T14:05:47;17.50;;;13.20;;
8704;SDS011;4389;41.932;25.904;2023-03-04T14:08:35;17.40;;;13.47;;
8704;SDS011;4389;41.932;25.904;2023-03-04T14:11:02;16.73;;;12.87;;
8704;SDS011;4389;41.932;25.904;2023-03-04T14:13:29;17.43;;;13.30;;
8704;SDS011;4389;41.932;25.904;2023-03-04T14:15:57;18.10;;;14.53;;
8704;SDS011;4389;41.932;25.904;2023-03-04T14:18:25;13.57;;;10.67;;
8704;SDS011;4389;41.932;25.904;2023-03-04T14:20:53;10.10;;;8.87;;
8704;SDS011;4389;41.932;25.904;2023-03-04T14:23:25;11.47;;;10.20;;
8704;SDS011;4389;41.932;25.904;2023-03-04T14:26:03;14.10;;;10.70;;
8704;SDS011;4389;41.932;25.904;2023-03-04T14:28:42;21.50;;;11.40;;
8704;SDS011;4389;41.932;25.904;2023-03-04T14:31:14;18.83;;;13.10;;
8704;SDS011;4389;41.932;25.904;2023-03-04T14:33:43;17.33;;;12.40;;
8704;SDS011;4389;41.932;25.904;2023-03-04T14:36:15;11.07;;;9.10;;
8704;SDS011;4389;41.932;25.904;2023-03-04T14:38:48;15.87;;;11.83;;
8704;SDS011;4389;41.932;25.904;2023-03-04T14:41:19;13.70;;;10.37;;
8704;SDS011;4389;41.932;25.904;2023-03-04T14:43:52;14.73;;;10.43;;
8704;SDS011;4389;41.932;25.904;2023-03-04T14:46:24;17.67;;;11.33;;
8704;SDS011;4389;41.932;25.904;2023-03-04T14:48:55;18.17;;;10.27;;
8704;SDS011;4389;41.932;25.904;2023-03-04T14:51:27;17.77;;;12.13;;
8704;SDS011;4389;41.932;25.904;2023-03-04T14:53:56;13.47;;;10.53;;
8704;SDS011;4389;41.932;25.904;2023-03-04T14:56:28;14.37;;;10.93;;
8704;SDS011;4389;41.932;25.904;2023-03-04T14:58:58;13.03;;;10.47;;
8704;SDS011;4389;41.932;25.904;2023-03-04T15:01:30;15.03;;;10.03;;
8704;SDS011;4389;41.932;25.904;2023-03-04T15:03:59;13.80;;;10.70;;
8704;SDS011;4389;41.932;25.904;2023-03-04T15:06:28;13.97;;;10.97;;
8704;SDS011;4389;41.932;25.904;2023-03-04T15:08:57;14.73;;;10.63;;